Amsterdam, Montana
Current Conditions -  °F | °C
As of 12:56 AM on Sunday 26 Oct 2014 (Local Time) from KBZN Reporting Station
Few Clouds Few Clouds  
Wind Chill: 12°   Ceiling: Unl
Heat Index: 12°   Visibility: 10mi
Dew Point:   Wind: 12mph
Humidity: 50%   Direction: 270°W
Pressure: 29.72"   Gusts: NA
Location:  45.7517°N, 111.347°W
Report Text: KBZN 260656Z AUTO 27010KT 10SM FEW110 12/02 A2972 RMK AO2 SLP056 T01170017 401891028
Loading
Personal Weather Stations






























Interactive Weather Map
Tropical Storm Tracking
New forecast layout! Learn more

10-Day Weather Forecast

Advertisements
Track Severe Weather on mobile